createdAt,value
2022-11-24T00:00:45.426Z,14.10
2022-11-24T00:02:47.524Z,17.15
2022-11-24T00:04:49.642Z,18.67
2022-11-24T00:06:53.573Z,16.83
2022-11-24T00:08:56.569Z,15.93
2022-11-24T00:11:04.493Z,15.95
2022-11-24T00:13:06.468Z,20.45
2022-11-24T00:15:08.670Z,14.02
2022-11-24T00:17:10.750Z,21.55
2022-11-24T00:19:17.060Z,15.77
2022-11-24T00:21:22.149Z,15.95
2022-11-24T00:23:24.132Z,16.55
2022-11-24T00:25:26.046Z,18.73
2022-11-24T00:27:28.028Z,11.38
2022-11-24T00:29:30.074Z,18.08
2022-11-24T00:31:35.415Z,18.67
2022-11-24T00:33:37.381Z,16.90
2022-11-24T00:35:39.394Z,12.38
2022-11-24T00:37:41.336Z,17.25
2022-11-24T00:39:43.225Z,7.88
2022-11-24T00:41:45.229Z,9.77
2022-11-24T00:43:47.354Z,11.27
2022-11-24T00:45:49.491Z,10.68
2022-11-24T00:47:51.619Z,9.73
2022-11-24T00:49:53.529Z,11.07
2022-11-24T00:51:55.452Z,9.68
2022-11-24T00:53:58.765Z,5.38
2022-11-24T00:56:00.954Z,6.75
2022-11-24T00:58:03.006Z,10.85
2022-11-24T01:00:05.993Z,2.50
2022-11-24T01:02:08.026Z,6.97
2022-11-24T01:04:10.009Z,9.05
2022-11-24T01:06:15.108Z,4.72
2022-11-24T01:08:17.324Z,2.65
2022-11-24T01:10:19.345Z,3.80
2022-11-24T01:12:21.291Z,5.30
2022-11-24T01:14:25.246Z,2.25
2022-11-24T01:16:32.882Z,3.42
2022-11-24T01:18:34.847Z,2.33
2022-11-24T01:20:37.770Z,3.40
2022-11-24T01:22:39.741Z,5.28
2022-11-24T01:24:42.009Z,2.33
2022-11-24T01:26:44.019Z,1.33
2022-11-24T01:28:47.480Z,1.52
2022-11-24T01:30:56.118Z,3.53
2022-11-24T01:32:58.089Z,2.70
2022-11-24T01:35:00.326Z,2.00
2022-11-24T01:37:02.301Z,3.28
2022-11-24T01:39:04.409Z,1.40
2022-11-24T01:41:13.409Z,1.83
2022-11-24T01:43:18.794Z,4.15
2022-11-24T01:45:32.766Z,2.70
2022-11-24T01:47:38.720Z,1.85
2022-11-24T01:49:46.987Z,3.08
2022-11-24T01:51:55.748Z,1.88
2022-11-24T01:54:02.270Z,1.67
2022-11-24T01:56:05.650Z,4.40
2022-11-24T01:58:15.405Z,8.88
2022-11-24T02:00:18.956Z,2.35
2022-11-24T02:02:22.380Z,2.90
2022-11-24T02:04:29.867Z,2.05
2022-11-24T02:06:35.548Z,2.50
2022-11-24T02:08:45.294Z,6.20
2022-11-24T02:10:48.646Z,2.55
2022-11-24T02:12:53.833Z,1.55
2022-11-24T02:14:56.642Z,3.90
2022-11-24T02:16:58.546Z,6.65
2022-11-24T02:19:00.508Z,5.88
2022-11-24T02:21:02.433Z,2.17
2022-11-24T02:23:12.535Z,6.55
2022-11-24T02:25:20.793Z,5.80
2022-11-24T02:27:22.785Z,3.03
2022-11-24T02:29:24.824Z,8.38
2022-11-24T02:31:27.014Z,5.25
2022-11-24T02:33:30.024Z,6.10
2022-11-24T02:35:32.276Z,3.63
2022-11-24T02:37:34.417Z,5.88
2022-11-24T02:39:36.414Z,6.22
2022-11-24T02:41:40.265Z,5.78
2022-11-24T02:43:48.767Z,6.20
2022-11-24T02:45:50.712Z,3.30
2022-11-24T02:47:52.864Z,6.05
2022-11-24T02:49:54.817Z,4.32
2022-11-24T02:51:57.217Z,6.53
2022-11-24T02:53:59.341Z,6.18
2022-11-24T02:56:01.272Z,4.95
2022-11-24T02:58:03.494Z,11.95
2022-11-24T03:00:06.359Z,7.07
2022-11-24T03:02:08.316Z,7.85
2022-11-24T03:04:10.330Z,8.60
2022-11-24T03:06:12.418Z,6.68
2022-11-24T03:08:14.478Z,7.43
2022-11-24T03:10:17.162Z,6.32
2022-11-24T03:12:19.103Z,2.53
2022-11-24T03:14:20.972Z,8.77
2022-11-24T03:16:22.927Z,8.65
2022-11-24T03:18:24.962Z,6.60
2022-11-24T03:20:27.043Z,6.78
2022-11-24T03:22:29.237Z,7.25
2022-11-24T03:24:31.800Z,12.55
2022-11-24T03:26:35.361Z,7.95
2022-11-24T03:28:37.312Z,5.93
2022-11-24T03:30:39.188Z,11.18
2022-11-24T03:32:42.110Z,8.77
2022-11-24T03:34:44.091Z,10.38
2022-11-24T03:36:46.264Z,8.65
2022-11-24T03:38:48.232Z,9.48
2022-11-24T03:40:50.190Z,7.57
2022-11-24T03:42:52.162Z,7.35
2022-11-24T03:44:54.221Z,8.05
2022-11-24T03:46:56.100Z,8.85
2022-11-24T03:48:58.009Z,6.85
2022-11-24T03:51:02.005Z,13.05
2022-11-24T03:53:04.074Z,13.65
2022-11-24T03:55:06.816Z,6.78
2022-11-24T03:57:08.911Z,11.20
2022-11-24T03:59:10.789Z,16.95
2022-11-24T04:01:12.743Z,12.00
2022-11-24T04:03:14.791Z,8.63
2022-11-24T04:05:16.915Z,12.00
2022-11-24T04:07:19.016Z,9.18
2022-11-24T04:09:20.986Z,7.60
2022-11-24T04:11:26.025Z,7.90
2022-11-24T04:13:27.964Z,15.35
2022-11-24T04:15:29.916Z,14.02
2022-11-24T04:17:31.946Z,9.90
2022-11-24T04:19:33.813Z,10.02
2022-11-24T04:21:35.961Z,18.48
2022-11-24T04:23:37.950Z,11.52
2022-11-24T04:25:41.617Z,14.10
2022-11-24T04:27:44.033Z,11.45
2022-11-24T04:29:46.077Z,13.90
2022-11-24T04:31:48.013Z,12.10
2022-11-24T04:33:49.917Z,11.05
2022-11-24T04:35:53.825Z,11.10
2022-11-24T04:37:55.749Z,20.73
2022-11-24T04:39:57.630Z,14.95
2022-11-24T04:41:59.612Z,11.75
2022-11-24T04:44:01.542Z,16.35
2022-11-24T04:46:03.429Z,13.85
2022-11-24T04:48:06.021Z,13.98
2022-11-24T04:50:09.156Z,12.45
2022-11-24T04:52:11.080Z,14.75
2022-11-24T04:54:14.430Z,14.57
2022-11-24T04:56:16.396Z,20.02
2022-11-24T04:58:18.369Z,13.98
2022-11-24T05:00:20.530Z,14.52
2022-11-24T05:02:22.965Z,14.80
2022-11-24T05:04:24.914Z,13.73
2022-11-24T05:06:27.120Z,21.75
2022-11-24T05:08:29.101Z,13.20
2022-11-24T05:10:34.205Z,12.85
2022-11-24T05:12:36.188Z,14.02
2022-11-24T05:14:38.169Z,13.77
2022-11-24T05:16:40.864Z,11.65
2022-11-24T05:18:42.982Z,14.77
2022-11-24T05:20:45.039Z,19.02
2022-11-24T05:22:47.222Z,14.38
2022-11-24T05:24:49.297Z,18.17
2022-11-24T05:26:51.241Z,19.63
2022-11-24T05:28:53.425Z,25.20
2022-11-24T05:30:59.056Z,15.70
2022-11-24T05:33:06.149Z,14.35
2022-11-24T05:35:09.909Z,11.95
2022-11-24T05:37:11.936Z,12.77
2022-11-24T05:39:13.885Z,12.35
2022-11-24T05:41:16.067Z,12.85
2022-11-24T05:43:18.660Z,12.13
2022-11-24T05:45:22.046Z,14.52
2022-11-24T05:47:24.322Z,16.20
2022-11-24T05:49:26.444Z,18.15
2022-11-24T05:51:28.305Z,10.73
2022-11-24T05:53:30.185Z,15.27
2022-11-24T05:55:32.961Z,25.98
2022-11-24T05:57:35.521Z,15.45
2022-11-24T05:59:37.509Z,21.45
2022-11-24T06:01:39.501Z,13.95
2022-11-24T06:03:41.547Z,11.68
2022-11-24T06:05:47.433Z,17.98
2022-11-24T06:07:49.367Z,15.70
2022-11-24T06:09:51.300Z,25.05
2022-11-24T06:11:53.284Z,24.50
2022-11-24T06:13:55.179Z,22.55
2022-11-24T06:15:59.585Z,26.13
2022-11-24T06:18:01.565Z,16.13
2022-11-24T06:20:03.790Z,19.67
2022-11-24T06:22:05.796Z,13.02
2022-11-24T06:24:08.389Z,17.88
2022-11-24T06:26:10.751Z,20.55
2022-11-24T06:28:12.759Z,17.67
2022-11-24T06:30:15.403Z,16.38
2022-11-24T06:32:17.633Z,21.70
2022-11-24T06:34:19.558Z,23.08
2022-11-24T06:36:21.456Z,23.92
2022-11-24T06:38:24.453Z,22.33
2022-11-24T06:40:26.496Z,15.85
2022-11-24T06:42:28.400Z,19.73
2022-11-24T06:44:30.496Z,12.48
2022-11-24T06:46:32.489Z,18.83
2022-11-24T06:48:34.676Z,14.63
2022-11-24T06:50:37.668Z,17.05
2022-11-24T06:52:39.936Z,14.77
2022-11-24T06:54:41.949Z,25.13
2022-11-24T06:56:44.316Z,22.17
2022-11-24T06:58:49.650Z,19.05
2022-11-24T07:00:52.235Z,13.45
2022-11-24T07:02:54.340Z,23.95
2022-11-24T07:04:56.302Z,15.30
2022-11-24T07:06:58.238Z,23.63
2022-11-24T07:09:00.213Z,19.75
2022-11-24T07:11:06.310Z,15.52
2022-11-24T07:13:08.884Z,16.33
2022-11-24T07:15:11.474Z,13.73
2022-11-24T07:17:13.401Z,21.77
2022-11-24T07:19:18.944Z,19.13
2022-11-24T07:21:24.948Z,16.45
2022-11-24T07:23:26.898Z,13.88
2022-11-24T07:25:28.820Z,22.75
2022-11-24T07:27:30.768Z,18.80
2022-11-24T07:29:32.787Z,23.83
2022-11-24T07:31:34.932Z,19.70
2022-11-24T07:33:37.236Z,20.77
2022-11-24T07:35:39.236Z,24.35
2022-11-24T07:37:41.291Z,21.27
2022-11-24T07:39:43.385Z,20.98
2022-11-24T07:41:45.389Z,19.13
2022-11-24T07:43:48.338Z,17.50
2022-11-24T07:45:53.477Z,19.15
2022-11-24T07:47:55.585Z,22.60
2022-11-24T07:49:57.506Z,14.25
2022-11-24T07:52:00.977Z,18.73
2022-11-24T07:54:03.125Z,17.15
2022-11-24T07:56:07.980Z,21.08
2022-11-24T07:58:09.977Z,16.15
2022-11-24T08:00:13.081Z,24.85
2022-11-24T08:02:15.563Z,21.80
2022-11-24T08:04:17.541Z,20.80
2022-11-24T08:06:26.242Z,14.95
2022-11-24T08:08:33.525Z,20.95
2022-11-24T08:10:35.625Z,15.23
2022-11-24T08:12:37.900Z,16.65
2022-11-24T08:14:40.005Z,29.67
2022-11-24T08:16:42.339Z,23.58
2022-11-24T08:18:49.147Z,25.33
2022-11-24T08:20:51.161Z,18.58
2022-11-24T08:22:58.630Z,14.05
2022-11-24T08:25:00.860Z,17.80
2022-11-24T08:27:03.306Z,24.88
2022-11-24T08:29:05.601Z,21.02
2022-11-24T08:31:10.401Z,20.40
2022-11-24T08:33:13.005Z,25.63
2022-11-24T08:35:15.184Z,25.83
2022-11-24T08:37:18.353Z,21.05
2022-11-24T08:39:20.989Z,18.00
2022-11-24T08:41:24.313Z,25.70
2022-11-24T08:43:26.486Z,16.25
2022-11-24T08:45:30.796Z,19.67
2022-11-24T08:47:33.023Z,19.77
2022-11-24T08:49:35.216Z,27.98
2022-11-24T08:51:37.957Z,22.70
2022-11-24T08:53:40.526Z,17.10
2022-11-24T08:55:42.487Z,21.63
2022-11-24T08:57:44.652Z,15.07
2022-11-24T08:59:47.058Z,24.00
2022-11-24T09:01:49.544Z,17.45
2022-11-24T09:03:52.609Z,15.73
2022-11-24T09:05:54.921Z,20.00
2022-11-24T09:07:58.170Z,25.20
2022-11-24T09:10:00.524Z,27.98
2022-11-24T09:12:02.802Z,25.58
2022-11-24T09:14:05.176Z,19.90
2022-11-24T09:16:11.403Z,21.73
2022-11-24T09:18:13.528Z,23.52
2022-11-24T09:20:16.123Z,20.58
2022-11-24T09:22:19.440Z,24.80
2022-11-24T09:24:21.619Z,27.58
2022-11-24T09:26:26.907Z,19.00
2022-11-24T09:28:29.164Z,16.90
2022-11-24T09:30:31.367Z,28.92
2022-11-24T09:32:33.502Z,28.65
2022-11-24T09:34:36.526Z,23.20
2022-11-24T09:36:38.937Z,25.85
2022-11-24T09:38:41.897Z,31.77
2022-11-24T09:40:43.977Z,26.05
2022-11-24T09:42:53.538Z,18.63
2022-11-24T09:45:04.953Z,20.13
2022-11-24T09:47:13.284Z,24.52
2022-11-24T09:49:22.925Z,30.17
2022-11-24T09:51:30.881Z,23.08
2022-11-24T09:53:36.713Z,36.10
2022-11-24T09:55:43.286Z,19.10
2022-11-24T09:57:49.424Z,33.70
2022-11-24T09:59:51.470Z,25.75
2022-11-24T10:01:56.055Z,28.20
2022-11-24T10:04:04.268Z,25.60
2022-11-24T10:06:15.587Z,25.47
2022-11-24T10:08:24.165Z,24.00
2022-11-24T10:10:38.362Z,25.55
2022-11-24T10:12:45.009Z,31.52
2022-11-24T10:14:53.764Z,20.63
2022-11-24T10:17:11.210Z,31.35
2022-11-24T10:19:17.869Z,24.13
2022-11-24T10:21:29.822Z,34.22
2022-11-24T10:23:39.892Z,31.95
2022-11-24T10:25:48.837Z,32.22
2022-11-24T10:28:00.465Z,30.98
2022-11-24T10:30:03.256Z,37.53
2022-11-24T10:32:14.474Z,28.00
2022-11-24T10:34:18.916Z,29.02
2022-11-24T10:36:30.869Z,25.92
2022-11-24T10:38:37.526Z,27.35
2022-11-24T10:41:00.480Z,32.08
2022-11-24T10:43:03.125Z,40.25
2022-11-24T10:45:11.483Z,29.60
2022-11-24T10:47:19.789Z,36.53
2022-11-24T10:49:28.985Z,27.90
2022-11-24T10:51:32.122Z,35.58
2022-11-24T10:53:38.563Z,30.08
2022-11-24T10:55:47.028Z,33.17
2022-11-24T10:57:49.179Z,26.52
2022-11-24T10:59:51.450Z,43.28
2022-11-24T11:01:53.843Z,30.80
2022-11-24T11:03:58.729Z,32.30
2022-11-24T11:06:10.705Z,43.72
2022-11-24T11:08:15.232Z,29.88
2022-11-24T11:10:22.946Z,48.30
2022-11-24T11:12:45.983Z,26.73
2022-11-24T11:14:48.921Z,26.27
2022-11-24T11:16:54.412Z,28.33
2022-11-24T11:18:57.195Z,42.95
2022-11-24T11:21:03.132Z,27.88
2022-11-24T11:23:20.366Z,32.00
2022-11-24T11:25:30.005Z,25.00
2022-11-24T11:27:32.494Z,28.90
2022-11-24T11:34:30.051Z,32.90
2022-11-24T11:36:33.470Z,26.83
2022-11-24T11:38:38.692Z,32.30
2022-11-24T11:40:44.048Z,25.25
2022-11-24T11:43:02.326Z,27.38
2022-11-24T11:45:12.420Z,20.15
2022-11-24T11:47:24.953Z,20.73
2022-11-24T11:49:30.306Z,26.48
2022-11-24T11:51:54.806Z,24.63
2022-11-24T11:54:08.054Z,23.33
2022-11-24T11:56:24.567Z,22.58
2022-11-24T11:58:39.285Z,30.85
2022-11-24T12:00:50.021Z,21.13
2022-11-24T12:05:02.563Z,20.73
2022-11-24T12:07:05.405Z,23.02
2022-11-24T12:09:20.787Z,20.95
2022-11-24T12:11:33.825Z,19.13
2022-11-24T12:13:36.634Z,27.30
2022-11-24T12:15:42.353Z,23.27
2022-11-24T12:17:52.044Z,26.52
2022-11-24T12:19:58.645Z,14.98
2022-11-24T12:22:07.048Z,19.02
2022-11-24T12:24:15.751Z,21.65
2022-11-24T12:26:25.886Z,25.00
2022-11-24T12:28:36.301Z,23.40
2022-11-24T12:30:44.698Z,16.67
2022-11-24T12:32:51.449Z,18.10
2022-11-24T12:35:03.469Z,24.23
2022-11-24T12:37:12.189Z,19.92
2022-11-24T12:39:23.368Z,17.40
2022-11-24T12:41:42.201Z,24.65
2022-11-24T12:43:53.008Z,13.98
2022-11-24T12:46:10.027Z,26.17
2022-11-24T12:48:26.629Z,15.77
2022-11-24T12:50:30.681Z,17.17
2022-11-24T12:52:38.561Z,16.88
2022-11-24T12:54:41.349Z,16.13
2022-11-24T12:56:54.106Z,16.23
2022-11-24T12:59:00.825Z,18.55
2022-11-24T13:01:14.665Z,15.93
2022-11-24T13:03:24.785Z,17.63
2022-11-24T13:05:37.143Z,22.33
2022-11-24T13:07:47.225Z,18.95
2022-11-24T13:09:55.678Z,30.92
2022-11-24T13:12:08.037Z,24.70
2022-11-24T13:14:14.803Z,18.52
2022-11-24T13:16:38.661Z,22.20
2022-11-24T13:18:44.368Z,19.90
2022-11-24T13:20:46.855Z,21.08
2022-11-24T13:22:53.243Z,26.60
2022-11-24T13:25:01.863Z,16.70
2022-11-24T13:27:10.521Z,27.45
2022-11-24T13:29:25.173Z,25.75
2022-11-24T13:31:27.889Z,19.45
2022-11-24T13:33:32.773Z,15.93
2022-11-24T13:35:35.285Z,22.05
2022-11-24T13:37:38.161Z,19.30
2022-11-24T13:39:52.391Z,21.13
2022-11-24T13:41:55.241Z,18.60
2022-11-24T13:44:03.570Z,22.90
2022-11-24T13:46:10.051Z,22.35
2022-11-24T13:48:18.540Z,18.13
2022-11-24T13:50:21.775Z,16.58
2022-11-24T13:52:30.181Z,21.65
2022-11-24T13:54:32.756Z,26.55
2022-11-24T13:56:35.142Z,21.02
2022-11-24T13:58:40.006Z,21.05
2022-11-24T14:00:48.430Z,21.63
2022-11-24T14:02:53.124Z,24.63
2022-11-24T14:04:57.437Z,21.08
2022-11-24T14:07:07.981Z,18.45
2022-11-24T14:09:20.053Z,16.30
2022-11-24T14:11:23.488Z,23.05
2022-11-24T14:13:30.214Z,19.25
2022-11-24T14:15:35.858Z,13.15
2022-11-24T14:17:38.929Z,21.00
2022-11-24T14:19:44.215Z,16.67
2022-11-24T14:21:46.878Z,22.55
2022-11-24T14:23:53.328Z,25.00
2022-11-24T14:25:55.964Z,25.42
2022-11-24T14:28:00.161Z,19.30
2022-11-24T14:30:04.946Z,20.83
2022-11-24T14:32:17.409Z,19.10
2022-11-24T14:34:22.052Z,18.48
2022-11-24T14:36:25.889Z,27.90
2022-11-24T14:38:28.477Z,18.95
2022-11-24T14:40:44.841Z,22.27
2022-11-24T14:42:51.563Z,25.42
2022-11-24T14:44:56.987Z,19.50
2022-11-24T14:47:04.297Z,23.02
2022-11-24T14:49:07.897Z,25.45
2022-11-24T14:51:11.820Z,20.73
2022-11-24T14:53:18.281Z,24.77
2022-11-24T14:55:25.620Z,20.42
2022-11-24T14:57:32.442Z,21.98
2022-11-24T14:59:36.938Z,26.98
2022-11-24T15:01:42.029Z,17.88
2022-11-24T15:03:44.900Z,13.55
2022-11-24T15:05:53.088Z,20.95
2022-11-24T15:08:02.037Z,19.20
2022-11-24T15:10:17.805Z,21.90
2022-11-24T15:12:29.272Z,23.05
2022-11-24T15:14:35.758Z,17.60
2022-11-24T15:16:40.820Z,20.55
2022-11-24T15:18:46.853Z,21.08
2022-11-24T15:20:49.968Z,25.30
2022-11-24T15:23:12.453Z,18.27
2022-11-24T15:25:21.419Z,21.30
2022-11-24T15:27:23.960Z,18.95
2022-11-24T15:29:26.619Z,20.33
2022-11-24T15:31:29.460Z,19.55
2022-11-24T15:33:32.858Z,19.13
2022-11-24T15:35:35.691Z,19.63
2022-11-24T15:37:38.166Z,17.02
2022-11-24T15:39:41.085Z,23.20
2022-11-24T15:41:43.659Z,16.38
2022-11-24T15:43:46.342Z,21.58
2022-11-24T15:45:48.904Z,23.98
2022-11-24T15:47:51.997Z,12.60
2022-11-24T15:49:54.218Z,16.67
2022-11-24T15:51:56.604Z,18.00
2022-11-24T15:54:01.290Z,19.02
2022-11-24T15:56:09.752Z,16.95
2022-11-24T15:58:14.700Z,20.20
2022-11-24T16:00:19.584Z,15.98
2022-11-24T16:02:22.960Z,22.45
2022-11-24T16:04:26.521Z,16.58
2022-11-24T16:06:29.642Z,14.38
2022-11-24T16:08:32.281Z,15.85
2022-11-24T16:10:37.660Z,12.82
2022-11-24T16:12:40.768Z,15.05
2022-11-24T16:14:43.900Z,15.07
2022-11-24T16:16:46.917Z,7.72
2022-11-24T16:18:50.062Z,9.18
2022-11-24T16:20:52.941Z,10.68
2022-11-24T16:22:57.750Z,9.80
2022-11-24T16:25:01.158Z,9.20
2022-11-24T16:27:04.236Z,14.30
2022-11-24T16:29:07.827Z,13.25
2022-11-24T16:31:10.793Z,7.53
2022-11-24T16:33:15.094Z,6.30
2022-11-24T16:35:18.621Z,12.10
2022-11-24T16:37:22.786Z,6.95
2022-11-24T16:39:26.405Z,17.17
2022-11-24T16:41:29.852Z,12.13
2022-11-24T16:43:33.356Z,10.63
2022-11-24T16:45:40.834Z,6.53
2022-11-24T16:47:47.286Z,9.38
2022-11-24T16:49:50.287Z,12.60
2022-11-24T16:51:52.874Z,4.85
2022-11-24T16:53:59.930Z,3.83
2022-11-24T16:56:04.589Z,5.25
2022-11-24T16:58:07.387Z,5.63
2022-11-24T17:00:12.053Z,7.93
2022-11-24T17:02:24.465Z,5.53
2022-11-24T17:04:27.861Z,4.03
2022-11-24T17:06:33.135Z,5.45
2022-11-24T17:08:37.857Z,4.03
2022-11-24T17:10:41.155Z,8.57
2022-11-24T17:12:45.710Z,7.25
2022-11-24T17:15:16.355Z,9.18
2022-11-24T17:17:14.736Z,7.10
2022-11-24T17:19:18.041Z,7.82
2022-11-24T17:21:25.870Z,5.65
2022-11-24T17:23:30.135Z,10.88
2022-11-24T17:25:35.239Z,7.32
2022-11-24T17:27:39.238Z,8.35
2022-11-24T17:29:42.811Z,8.07
2022-11-24T17:31:47.490Z,7.20
2022-11-24T17:33:51.734Z,8.45
2022-11-24T17:35:55.350Z,7.80
2022-11-24T17:37:58.950Z,4.53
2022-11-24T17:40:26.942Z,8.63
2022-11-24T17:42:25.365Z,10.85
2022-11-24T17:44:29.029Z,4.03
2022-11-24T17:46:35.192Z,13.40
2022-11-24T17:48:38.678Z,9.27
2022-11-24T17:50:42.005Z,4.25
2022-11-24T17:52:50.074Z,6.03
2022-11-24T17:54:54.274Z,6.55
2022-11-24T17:56:57.849Z,9.18
2022-11-24T17:59:04.954Z,7.32
2022-11-24T18:01:10.171Z,6.80
2022-11-24T18:03:13.933Z,7.75
2022-11-24T18:05:18.080Z,8.18
2022-11-24T18:07:21.145Z,9.25
2022-11-24T18:09:24.890Z,14.23
2022-11-24T18:11:32.059Z,15.57
2022-11-24T18:14:01.431Z,13.45
2022-11-24T18:16:01.423Z,9.65
2022-11-24T18:18:06.000Z,15.65
2022-11-24T18:20:09.673Z,15.82
2022-11-24T18:22:12.318Z,12.10
2022-11-24T18:24:18.569Z,16.40
2022-11-24T18:26:29.929Z,11.10
2022-11-24T18:28:33.676Z,13.85
2022-11-24T18:30:38.760Z,16.10
2022-11-24T18:32:41.260Z,13.13
2022-11-24T18:34:44.915Z,20.40
2022-11-24T18:36:51.501Z,16.88
2022-11-24T18:38:55.034Z,12.25
2022-11-24T18:41:00.299Z,17.30
2022-11-24T18:43:02.915Z,24.45
2022-11-24T18:45:06.685Z,15.18
2022-11-24T18:47:09.506Z,13.55
2022-11-24T18:49:11.975Z,17.70
2022-11-24T18:51:15.423Z,13.80
2022-11-24T18:53:18.239Z,17.92
2022-11-24T18:55:21.583Z,18.27
2022-11-24T18:57:24.150Z,20.55
2022-11-24T18:59:26.646Z,15.57
2022-11-24T19:01:30.214Z,20.02
2022-11-24T19:03:33.011Z,22.58
2022-11-24T19:05:35.664Z,27.45
2022-11-24T19:07:38.306Z,23.10
2022-11-24T19:09:40.710Z,20.70
2022-11-24T19:11:45.534Z,23.90
2022-11-24T19:13:49.653Z,16.73
2022-11-24T19:15:52.585Z,14.13
2022-11-24T19:17:55.189Z,24.65
2022-11-24T19:19:57.669Z,14.95
2022-11-24T19:22:01.180Z,22.20
2022-11-24T19:24:05.889Z,19.42
2022-11-24T19:26:08.457Z,22.60
2022-11-24T19:28:13.264Z,20.65
2022-11-24T19:30:17.954Z,18.08
2022-11-24T19:32:20.529Z,18.88
2022-11-24T19:34:22.760Z,19.83
2022-11-24T19:36:26.431Z,24.38
2022-11-24T19:38:30.388Z,20.98
2022-11-24T19:40:32.801Z,17.38
2022-11-24T19:42:35.434Z,13.82
2022-11-24T19:44:37.993Z,21.10
2022-11-24T19:46:41.079Z,22.00
2022-11-24T19:48:46.396Z,30.73
2022-11-24T19:50:49.089Z,18.42
2022-11-24T19:52:51.659Z,18.95
2022-11-24T19:54:54.390Z,27.42
2022-11-24T19:56:56.996Z,22.00
2022-11-24T19:58:59.574Z,15.07
2022-11-24T20:01:08.519Z,17.45
2022-11-24T20:03:11.209Z,15.73
2022-11-24T20:05:13.630Z,21.33
2022-11-24T20:07:16.255Z,21.60
2022-11-24T20:09:19.134Z,20.65
2022-11-24T20:11:22.699Z,14.63
2022-11-24T20:13:25.286Z,16.35
2022-11-24T20:15:29.328Z,20.17
2022-11-24T20:17:33.174Z,19.70
2022-11-24T20:19:36.107Z,15.95
2022-11-24T20:21:39.839Z,17.65
2022-11-24T20:23:42.928Z,13.80
2022-11-24T20:25:45.414Z,17.80
2022-11-24T20:27:47.877Z,23.42
2022-11-24T20:29:50.659Z,13.23
2022-11-24T20:31:55.154Z,25.35
2022-11-24T20:33:57.850Z,22.58
2022-11-24T20:36:06.549Z,20.85
2022-11-24T20:38:09.290Z,19.08
2022-11-24T20:40:12.396Z,23.30
2022-11-24T20:42:14.989Z,20.38
2022-11-24T20:44:22.586Z,20.70
2022-11-24T20:46:27.774Z,22.38
2022-11-24T20:48:31.182Z,15.57
2022-11-24T20:50:37.651Z,26.42
2022-11-24T20:52:40.374Z,17.45
2022-11-24T20:54:45.416Z,20.70
2022-11-24T20:56:48.655Z,26.75
2022-11-24T20:58:52.128Z,16.73
2022-11-24T21:00:54.510Z,23.42
2022-11-24T21:02:58.132Z,22.00
2022-11-24T21:05:00.537Z,18.70
2022-11-24T21:07:03.081Z,28.23
2022-11-24T21:09:06.940Z,25.23
2022-11-24T21:11:12.032Z,23.83
2022-11-24T21:13:14.219Z,20.38
2022-11-24T21:15:16.542Z,15.75
2022-11-24T21:17:19.046Z,21.25
2022-11-24T21:19:21.481Z,18.45
2022-11-24T21:21:25.179Z,20.40
2022-11-24T21:23:28.575Z,15.18
2022-11-24T21:25:31.303Z,17.55
2022-11-24T21:27:33.546Z,17.48
2022-11-24T21:29:35.807Z,20.80
2022-11-24T21:31:39.015Z,18.20
2022-11-24T21:33:45.833Z,21.45
2022-11-24T21:35:48.145Z,14.57
2022-11-24T21:37:50.485Z,20.35
2022-11-24T21:39:53.930Z,19.58
2022-11-24T21:41:56.320Z,15.50
2022-11-24T21:43:59.050Z,21.45
2022-11-24T21:46:03.407Z,16.60
2022-11-24T21:48:06.460Z,19.60
2022-11-24T21:50:09.571Z,20.13
2022-11-24T21:52:12.225Z,22.45
2022-11-24T21:54:14.812Z,17.85
2022-11-24T21:56:19.888Z,19.88
2022-11-24T21:58:22.877Z,19.65
2022-11-24T22:00:25.289Z,24.05
2022-11-24T22:02:27.515Z,14.93
2022-11-24T22:04:29.795Z,18.85
2022-11-24T22:06:33.450Z,18.75
2022-11-24T22:08:35.985Z,15.02
2022-11-24T22:10:38.188Z,17.42
2022-11-24T22:12:40.398Z,24.05
2022-11-24T22:14:43.254Z,20.38
2022-11-24T22:16:46.269Z,23.27
2022-11-24T22:18:49.022Z,31.83
2022-11-24T22:20:55.605Z,21.25
2022-11-24T22:22:58.053Z,15.82
2022-11-24T22:25:00.589Z,15.52
2022-11-24T22:27:04.568Z,21.60
2022-11-24T22:29:08.004Z,27.60
2022-11-24T22:31:13.100Z,15.48
2022-11-24T22:33:15.658Z,18.50
2022-11-24T22:35:17.873Z,18.60
2022-11-24T22:37:20.083Z,25.38
2022-11-24T22:39:22.441Z,18.25
2022-11-24T22:41:25.773Z,21.17
2022-11-24T22:43:30.529Z,23.02
2022-11-24T22:45:32.878Z,21.52
2022-11-24T22:47:35.362Z,21.25
2022-11-24T22:49:37.750Z,22.83
2022-11-24T22:51:40.102Z,15.60
2022-11-24T22:53:46.886Z,25.35
2022-11-24T22:55:49.142Z,20.73
2022-11-24T22:57:56.753Z,19.33
2022-11-24T22:59:59.227Z,20.70
2022-11-24T23:02:01.501Z,21.42
2022-11-24T23:04:04.270Z,28.15
2022-11-24T23:06:12.765Z,21.75
2022-11-24T23:08:14.961Z,18.45
2022-11-24T23:10:17.225Z,21.88
2022-11-24T23:12:19.438Z,15.57
2022-11-24T23:14:22.656Z,22.23
2022-11-24T23:16:24.945Z,19.38
2022-11-24T23:18:27.144Z,15.57
2022-11-24T23:20:29.300Z,18.05
2022-11-24T23:22:31.533Z,16.92
2022-11-24T23:24:38.162Z,18.65
2022-11-24T23:26:41.637Z,20.33
2022-11-24T23:28:44.088Z,24.90
2022-11-24T23:30:46.301Z,18.42
2022-11-24T23:32:48.425Z,23.33
2022-11-24T23:34:50.588Z,15.60
2022-11-24T23:36:52.744Z,20.05
2022-11-24T23:38:55.101Z,16.08
2022-11-24T23:40:57.878Z,16.17
2022-11-24T23:43:00.602Z,15.02
2022-11-24T23:45:02.817Z,21.92
2022-11-24T23:47:05.288Z,19.92
2022-11-24T23:49:07.480Z,18.58
2022-11-24T23:51:14.240Z,12.93
2022-11-24T23:53:16.443Z,30.10
2022-11-24T23:55:19.284Z,19.02
2022-11-24T23:57:21.464Z,16.58
2022-11-24T23:59:23.897Z,13.40
